Cotes De Bretagne — FW3973 — position and weather

sailwx.info

Track history (hours):
 
Tides and Currents Weather Stations Pressure Air Temp Water Temp Dewpoint Dewpoint Depression Visibility Wind Speed Wind Dir Waves Ship Positions

Cotes De Bretagne

Last reported at 2017-Nov-19 05:34 UTC. Time now 2017-Nov-19 06:52 UTC.
Position N 48°48' W 004°01'.

Length 75 m; draft 4.2 m.

Type: Dredging. MMSI: 227003850.

Date/timePositionNaut miles runAvg speedWind from/ knotsBaromVisibWave heightAir tempDewpointWater temp
2017-Nov-19 05:34N 48°48' W 004°01'711.7
2017-Nov-19 05:00N 48°46' W 004°10'611.8
2017-Nov-19 04:27N 48°44' W 004°20'511.9
2017-Nov-19 04:00N 48°43' W 004°27'713.1
2017-Nov-19 03:30N 48°41' W 004°37'713.6
2017-Nov-19 03:00N 48°38' W 004°46'612.3
2017-Nov-19 02:30N 48°32' W 004°50'611.2
2017-Nov-19 02:00N 48°26' W 004°50'611.8
2017-Nov-19 01:30N 48°21' W 004°49'510.8
2017-Nov-19 01:01N 48°16' W 004°45'5 9.9
2017-Nov-19 00:30N 48°11' W 004°45'511.0
2017-Nov-19 00:01N 48°05' W 004°45'612.0
2017-Nov-18 23:30N 47°60' W 004°43'611.3
2017-Nov-18 23:00N 47°55' W 004°37'610.8
2017-Nov-18 22:30N 47°51' W 004°32'510.8
2017-Nov-18 22:00N 47°47' W 004°26'610.5
2017-Nov-18 21:28N 47°43' W 004°20'510.6
2017-Nov-18 20:57N 47°41' W 004°13'1610.3
2017-Nov-18 19:27N 47°38' W 003°50'510.8
2017-Nov-18 19:00N 47°39' W 003°43'510.4
2017-Nov-18 18:31N 47°40' W 003°35'510.1
2017-Nov-18 18:00N 47°40' W 003°28'5 9.4
2017-Nov-18 17:31N 47°43' W 003°22'3 5.7
2017-Nov-18 17:01N 47°45' W 003°19'0 0.0
2017-Nov-18 16:31N 47°45' W 003°19'0 0.0
2017-Nov-18 16:01N 47°45' W 003°19'0 0.0
2017-Nov-18 15:31N 47°45' W 003°19'0 0.0
2017-Nov-18 15:01N 47°45' W 003°19'0 0.0
2017-Nov-18 14:31N 47°45' W 003°19'0 0.0
2017-Nov-18 14:00N 47°45' W 003°19'2 3.3
2017-Nov-18 13:31N 47°44' W 003°21'3 6.9
2017-Nov-18 13:00N 47°40' W 003°22'1 2.0
2017-Nov-18 12:30N 47°40' W 003°22'2 4.0
2017-Nov-18 12:00N 47°38' W 003°21'3 5.5
2017-Nov-18 11:31N 47°35' W 003°19'3 5.5
2017-Nov-18 11:01N 47°33' W 003°17'3 5.5
2017-Nov-18 10:31N 47°31' W 003°14'3 5.9
2017-Nov-18 10:00N 47°28' W 003°12'3 6.7
2017-Nov-18 09:31N 47°26' W 003°09'4 7.5
2017-Nov-18 09:01N 47°23' W 003°05'4 8.7
2017-Nov-18 08:30N 47°20' W 003°00'510.3
2017-Nov-18 08:00N 47°16' W 002°55'4 7.4
2017-Nov-18 07:30N 47°13' W 002°52'4 8.7
2017-Nov-18 06:59N 47°10' W 002°48'13 9.0
2017-Nov-18 05:35N 46°60' W 002°36'15 8.7
2017-Nov-18 03:52N 46°49' W 002°21'10 8.3
2017-Nov-18 02:37N 46°41' W 002°11'2 8.7
2017-Nov-18 02:25N 46°40' W 002°10'4 8.7
2017-Nov-18 02:00N 46°37' W 002°07'5 8.8
2017-Nov-18 01:27N 46°33' W 002°03'4 8.7
2017-Nov-18 01:00N 46°29' W 001°60'4 9.0
2017-Nov-18 00:31N 46°26' W 001°56'4 8.9
2017-Nov-18 00:00N 46°22' W 001°52'4 8.9
2017-Nov-17 23:31N 46°19' W 001°49'5 9.1
2017-Nov-17 23:00N 46°15' W 001°45'5 9.2
2017-Nov-17 22:27N 46°11' W 001°41'4 9.1
2017-Nov-17 22:01N 46°07' W 001°37'3 5.2
2017-Nov-17 21:31N 46°05' W 001°36'0 0.4
2017-Nov-17 21:01N 46°05' W 001°35'0 0.9
2017-Nov-17 20:31N 46°05' W 001°36'0 0.8
2017-Nov-17 20:00N 46°05' W 001°35'0 0.3
2017-Nov-17 19:30N 46°05' W 001°36'0 0.3
2017-Nov-17 19:00N 46°05' W 001°36'4 7.8
2017-Nov-17 18:30N 46°08' W 001°38'5 9.3
2017-Nov-17 18:00N 46°13' W 001°41'5 9.4
2017-Nov-17 17:30N 46°17' W 001°43'510.3
2017-Nov-17 17:00N 46°22' W 001°44'510.3
2017-Nov-17 16:30N 46°27' W 001°46'3 5.7
2017-Nov-17 16:00N 46°30' W 001°48'0 0.0
2017-Nov-17 15:30N 46°30' W 001°48'0 0.0
2017-Nov-17 15:00N 46°30' W 001°48'0 0.0
2017-Nov-17 14:30N 46°30' W 001°48'0 0.2
2017-Nov-17 14:00N 46°30' W 001°48'0 0.1
2017-Nov-17 13:30N 46°30' W 001°48'0 0.0
2017-Nov-17 13:01N 46°30' W 001°48'0 0.0
2017-Nov-17 12:30N 46°30' W 001°48'0 0.0
2017-Nov-17 12:00N 46°30' W 001°48'0 0.0
2017-Nov-17 11:30N 46°30' W 001°48'1 2.2
2017-Nov-17 11:00N 46°29' W 001°47'1 1.2
2017-Nov-17 10:30N 46°28' W 001°47'0 0.0
2017-Nov-17 10:01N 46°28' W 001°47'0 0.0
2017-Nov-17 09:31N 46°28' W 001°47'0 0.0
2017-Nov-17 09:01N 46°28' W 001°47'0 0.0
2017-Nov-17 08:31N 46°28' W 001°47'0 0.0
2017-Nov-17 08:01N 46°28' W 001°47'0 0.0
2017-Nov-17 07:31N 46°28' W 001°47'0 0.0
2017-Nov-17 07:00N 46°28' W 001°47'0 0.0
2017-Nov-17 06:30N 46°28' W 001°47'0 0.0
2017-Nov-17 06:01N 46°28' W 001°47'0 0.0
2017-Nov-17 05:31N 46°28' W 001°47'0 0.0
2017-Nov-17 05:00N 46°28' W 001°47'0 0.0
2017-Nov-17 04:31N 46°28' W 001°47'0 0.0
2017-Nov-17 04:00N 46°28' W 001°47'0 0.0
2017-Nov-17 03:30N 46°28' W 001°47'0 0.1
2017-Nov-17 03:00N 46°28' W 001°47'1 2.6
2017-Nov-17 02:30N 46°30' W 001°48'0 0.8
2017-Nov-17 02:00N 46°30' W 001°48'0 0.0
2017-Nov-17 01:30N 46°30' W 001°48'0 0.0
2017-Nov-17 01:01N 46°30' W 001°48'0 0.2
2017-Nov-17 00:31N 46°30' W 001°48'0 0.0
2017-Nov-17 00:00N 46°30' W 001°48'0 0.0
2017-Nov-16 23:30N 46°30' W 001°48'0 0.0
2017-Nov-16 23:00N 46°30' W 001°48'0 0.0
2017-Nov-16 22:31N 46°30' W 001°48'0 0.0
2017-Nov-16 22:00N 46°30' W 001°48'0 0.0
2017-Nov-16 21:30N 46°30' W 001°48'0 0.0
2017-Nov-16 21:01N 46°30' W 001°48'0 0.0
2017-Nov-16 20:30N 46°30' W 001°48'0 0.0
2017-Nov-16 20:00N 46°30' W 001°48'0 0.0
2017-Nov-16 19:30N 46°30' W 001°48'0 0.0
2017-Nov-16 19:01N 46°30' W 001°48'0 0.0
2017-Nov-16 18:30N 46°30' W 001°48'0 0.0
2017-Nov-16 18:01N 46°30' W 001°48'0 0.0
2017-Nov-16 17:30N 46°30' W 001°48'0 0.0
2017-Nov-16 17:00N 46°30' W 001°48'0 0.0
2017-Nov-16 16:30N 46°30' W 001°48'0 0.0
2017-Nov-16 16:00N 46°30' W 001°48'0 0.4
2017-Nov-16 15:30N 46°30' W 001°48'0 0.5
2017-Nov-16 15:00N 46°30' W 001°48'0 0.0
2017-Nov-16 14:30N 46°30' W 001°48'0 0.0
2017-Nov-16 14:00N 46°30' W 001°48'0 0.0
2017-Nov-16 13:30N 46°30' W 001°48'0 0.1
2017-Nov-16 13:00N 46°30' W 001°48'4 7.1
2017-Nov-16 12:30N 46°27' W 001°46'4 9.1
2017-Nov-16 12:01N 46°22' W 001°45'5 9.3
2017-Nov-16 11:30N 46°18' W 001°43'5 9.5
2017-Nov-16 10:58N 46°13' W 001°40'5 9.3
2017-Nov-16 10:28N 46°09' W 001°37'3 7.4
2017-Nov-16 10:01N 46°06' W 001°35'0 0.5
2017-Nov-16 09:31N 46°06' W 001°35'1 1.3
2017-Nov-16 09:00N 46°06' W 001°34'1 1.1
2017-Nov-16 08:31N 46°06' W 001°33'0 0.4
2017-Nov-16 08:00N 46°06' W 001°34'0 0.7
2017-Nov-16 07:30N 46°06' W 001°34'0 0.7
2017-Nov-16 07:00N 46°06' W 001°35'0 0.7
2017-Nov-16 06:31N 46°06' W 001°35'0 0.9
2017-Nov-16 06:00N 46°06' W 001°36'3 6.7
2017-Nov-16 05:31N 46°08' W 001°39'5 9.3
2017-Nov-16 05:01N 46°13' W 001°42'5 9.4
2017-Nov-16 04:30N 46°17' W 001°43'5 9.2
2017-Nov-16 04:01N 46°22' W 001°45'5 9.2
2017-Nov-16 03:30N 46°26' W 001°46'4 7.6
2017-Nov-16 03:00N 46°30' W 001°48'0 0.3
2017-Nov-16 02:30N 46°30' W 001°48'0 0.0
2017-Nov-16 02:01N 46°30' W 001°48'0 0.0
2017-Nov-16 01:31N 46°30' W 001°48'1 2.1
2017-Nov-16 01:01N 46°29' W 001°47'3 6.2
2017-Nov-16 00:31N 46°26' W 001°46'3 5.5
2017-Nov-16 00:01N 46°23' W 001°45'3 5.6
2017-Nov-15 23:31N 46°21' W 001°44'3 5.8
2017-Nov-15 23:01N 46°18' W 001°43'3 6.0
2017-Nov-15 22:28N 46°15' W 001°42'3 6.3
2017-Nov-15 21:57N 46°12' W 001°41'3 6.4
2017-Nov-15 21:31N 46°09' W 001°39'4 7.4
2017-Nov-15 21:01N 46°06' W 001°36'1 1.2
2017-Nov-15 20:31N 46°05' W 001°36'0 0.0
2017-Nov-15 20:01N 46°05' W 001°36'0 0.1
2017-Nov-15 19:30N 46°05' W 001°35'0 0.4
2017-Nov-15 19:01N 46°05' W 001°36'0 0.2
2017-Nov-15 18:31N 46°05' W 001°36'4 7.1
2017-Nov-15 18:01N 46°05' W 001°31'612.1
2017-Nov-15 17:31N 46°05' W 001°22'611.7
2017-Nov-15 17:01N 46°02' W 001°14'611.2
2017-Nov-15 16:31N 45°59' W 001°08'5 9.9
2017-Nov-15 16:00N 45°58' W 001°01'2 0.4
2017-Nov-15 12:13N 45°57' W 001°00'2 6.6
2017-Nov-15 11:56N 45°58' W 001°01'3 7.9
2017-Nov-15 11:30N 45°58' W 001°05'5 9.1
2017-Nov-15 11:00N 46°00' W 001°11'5 9.7
2017-Nov-15 10:30N 46°04' W 001°15'2 4.1
2017-Nov-15 10:00N 46°05' W 001°18'2 4.8
2017-Nov-15 09:31N 46°05' W 001°21'3 5.4
2017-Nov-15 09:00N 46°06' W 001°25'3 5.8
2017-Nov-15 08:30N 46°05' W 001°29'3 5.7
2017-Nov-15 08:00N 46°05' W 001°33'2 3.5
2017-Nov-15 07:31N 46°05' W 001°36'0 0.3
2017-Nov-15 07:01N 46°05' W 001°36'0 0.3
2017-Nov-15 06:30N 46°05' W 001°35'0 0.9
2017-Nov-15 06:01N 46°05' W 001°36'0 0.9
2017-Nov-15 05:31N 46°05' W 001°35'1 1.1
2017-Nov-15 05:00N 46°05' W 001°36'4 8.2
2017-Nov-15 04:30N 46°08' W 001°39'510.4
2017-Nov-15 04:00N 46°13' W 001°43'510.6
2017-Nov-15 03:30N 46°18' W 001°45'510.5
2017-Nov-15 03:00N 46°23' W 001°46'510.3
2017-Nov-15 02:30N 46°29' W 001°47'2 3.3
2017-Nov-15 02:01N 46°30' W 001°48'0 0.0
2017-Nov-15 01:31N 46°30' W 001°48'0 0.0
2017-Nov-15 01:00N 46°30' W 001°48'0 0.0
2017-Nov-15 00:30N 46°30' W 001°48'1 2.1
2017-Nov-15 00:00N 46°29' W 001°47'3 6.2
2017-Nov-14 23:30N 46°26' W 001°46'3 6.0
2017-Nov-14 23:00N 46°23' W 001°45'3 6.1
2017-Nov-14 22:30N 46°20' W 001°44'3 6.7
2017-Nov-14 22:01N 46°17' W 001°43'4 7.3
2017-Nov-14 21:30N 46°13' W 001°42'3 7.0
2017-Nov-14 21:00N 46°10' W 001°40'4 7.0
2017-Nov-14 20:30N 46°07' W 001°37'2 4.4
2017-Nov-14 20:00N 46°05' W 001°35'0 0.0
2017-Nov-14 19:31N 46°05' W 001°35'0 0.7
2017-Nov-14 19:00N 46°05' W 001°36'0 0.3
2017-Nov-14 18:31N 46°05' W 001°36'0 0.2
2017-Nov-14 18:00N 46°05' W 001°36'1 2.2
2017-Nov-14 17:31N 46°05' W 001°34'611.0
2017-Nov-14 17:01N 46°05' W 001°26'612.0
2017-Nov-14 16:31N 46°04' W 001°18'611.5
2017-Nov-14 15:59N 46°00' W 001°11'510.9
2017-Nov-14 15:29N 45°57' W 001°04'3 5.9
2017-Nov-14 14:59N 45°57' W 001°00'2 0.4
2017-Nov-14 11:08N 45°58' W 001°00'2 8.4
2017-Nov-14 10:54N 45°57' W 001°03'3 8.5
2017-Nov-14 10:30N 45°59' W 001°07'5 9.3
2017-Nov-14 10:00N 46°02' W 001°13'5 9.0
2017-Nov-14 09:30N 46°05' W 001°16'1 1.7
2017-Nov-14 09:00N 46°05' W 001°17'3 5.8
2017-Nov-14 08:30N 46°05' W 001°22'3 5.9
2017-Nov-14 08:00N 46°06' W 001°26'3 5.7
2017-Nov-14 07:29N 46°06' W 001°30'4 2.1
2017-Nov-14 05:39N 46°05' W 001°36'6 2.8
2017-Nov-14 03:26N 46°10' W 001°40'510.9
2017-Nov-14 03:00N 46°14' W 001°44'510.9
2017-Nov-14 02:30N 46°20' W 001°45'510.8
2017-Nov-14 02:00N 46°25' W 001°46'5 9.4
2017-Nov-14 01:30N 46°30' W 001°48'0 0.5
2017-Nov-14 01:00N 46°30' W 001°48'0 0.0
2017-Nov-14 00:30N 46°30' W 001°48'0 0.0
2017-Nov-14 00:01N 46°30' W 001°48'0 0.5
2017-Nov-13 23:30N 46°30' W 001°48'3 5.3
2017-Nov-13 23:00N 46°27' W 001°47'3 5.2
2017-Nov-13 22:30N 46°25' W 001°46'3 5.1
2017-Nov-13 22:00N 46°22' W 001°45'10 0.5
2017-Nov-13 01:59N 46°12' W 001°42'4 8.2
2017-Nov-13 01:30N 46°15' W 001°45'4 8.2
2017-Nov-13 01:00N 46°19' W 001°49'4 8.1
2017-Nov-13 00:30N 46°22' W 001°52'4 8.2
2017-Nov-13 00:00N 46°25' W 001°55'4 8.2
2017-Nov-12 23:30N 46°29' W 001°59'4 8.3
2017-Nov-12 23:00N 46°32' W 002°02'4 8.3
2017-Nov-12 22:30N 46°35' W 002°06'4 8.3
2017-Nov-12 22:00N 46°39' W 002°09'45 8.0
2017-Nov-12 16:21N 47°12' W 002°53'3 8.1
2017-Nov-12 16:00N 47°14' W 002°56'4 8.3
2017-Nov-12 15:30N 47°18' W 002°60'4 8.7
2017-Nov-12 15:00N 47°21' W 003°04'4 7.9
2017-Nov-12 14:30N 47°23' W 003°09'4 7.4
2017-Nov-12 14:00N 47°25' W 003°14'4 7.6
2017-Nov-12 13:30N 47°26' W 003°19'4 8.1
2017-Nov-12 13:00N 47°28' W 003°25'4 8.1
2017-Nov-12 12:30N 47°29' W 003°30'4 8.1
2017-Nov-12 12:00N 47°31' W 003°36'4 8.3
2017-Nov-12 11:30N 47°32' W 003°41'4 8.4
2017-Nov-12 11:00N 47°34' W 003°47'22 9.0
2017-Nov-12 08:33N 47°43' W 004°17'110.4
2017-Nov-12 08:29N 47°43' W 004°18'510.1
2017-Nov-12 07:59N 47°45' W 004°25'5 9.9
2017-Nov-12 07:29N 47°49' W 004°29'510.0
2017-Nov-12 07:00N 47°53' W 004°34'5 9.7
2017-Nov-12 06:30N 47°56' W 004°39'5 9.2
2017-Nov-12 06:01N 47°60' W 004°43'4 7.5
2017-Nov-12 05:31N 48°03' W 004°46'5 9.0
2017-Nov-12 05:00N 48°08' W 004°45'5 9.5
2017-Nov-12 04:30N 48°12' W 004°46'5 9.7
2017-Nov-12 04:00N 48°17' W 004°46'510.5
2017-Nov-12 03:30N 48°22' W 004°49'510.4
2017-Nov-12 03:00N 48°27' W 004°50'5 9.7
2017-Nov-12 02:30N 48°32' W 004°50'5 9.6
2017-Nov-12 02:00N 48°37' W 004°47'5 8.7
2017-Nov-12 01:27N 48°39' W 004°41'4 8.5
2017-Nov-12 01:00N 48°41' W 004°36'4 8.2
2017-Nov-12 00:30N 48°42' W 004°30'4 7.8
2017-Nov-11 23:57N 48°43' W 004°24'3 7.4
2017-Nov-11 23:30N 48°44' W 004°19'4 7.4
2017-Nov-11 23:00N 48°45' W 004°14'4 7.0
2017-Nov-11 22:28N 48°46' W 004°08'  
Track history (hours):
 
Tides and Currents Weather Stations Pressure Air Temp Water Temp Dewpoint Dewpoint Depression Visibility Wind Speed Wind Dir Waves Ship Positions

Cotes De Bretagne

Last reported at 2017-Nov-19 05:34 UTC. Time now 2017-Nov-19 06:52 UTC.
Position N 48°48' W 004°01'.

Length 75 m; draft 4.2 m.

Type: Dredging. MMSI: 227003850.

Date/timePositionNaut miles runAvg speedWind from/ knotsBaromVisibWave heightAir tempDewpointWater temp
2017-Nov-19 05:34N 48°48' W 004°01'711.7
2017-Nov-19 05:00N 48°46' W 004°10'611.8
2017-Nov-19 04:27N 48°44' W 004°20'511.9
2017-Nov-19 04:00N 48°43' W 004°27'713.1
2017-Nov-19 03:30N 48°41' W 004°37'713.6
2017-Nov-19 03:00N 48°38' W 004°46'612.3
2017-Nov-19 02:30N 48°32' W 004°50'611.2
2017-Nov-19 02:00N 48°26' W 004°50'611.8
2017-Nov-19 01:30N 48°21' W 004°49'510.8
2017-Nov-19 01:01N 48°16' W 004°45'5 9.9
2017-Nov-19 00:30N 48°11' W 004°45'511.0
2017-Nov-19 00:01N 48°05' W 004°45'612.0
2017-Nov-18 23:30N 47°60' W 004°43'611.3
2017-Nov-18 23:00N 47°55' W 004°37'610.8
2017-Nov-18 22:30N 47°51' W 004°32'510.8
2017-Nov-18 22:00N 47°47' W 004°26'610.5
2017-Nov-18 21:28N 47°43' W 004°20'510.6
2017-Nov-18 20:57N 47°41' W 004°13'1610.3
2017-Nov-18 19:27N 47°38' W 003°50'510.8
2017-Nov-18 19:00N 47°39' W 003°43'510.4
2017-Nov-18 18:31N 47°40' W 003°35'510.1
2017-Nov-18 18:00N 47°40' W 003°28'5 9.4
2017-Nov-18 17:31N 47°43' W 003°22'3 5.7
2017-Nov-18 17:01N 47°45' W 003°19'0 0.0
2017-Nov-18 16:31N 47°45' W 003°19'0 0.0
2017-Nov-18 16:01N 47°45' W 003°19'0 0.0
2017-Nov-18 15:31N 47°45' W 003°19'0 0.0
2017-Nov-18 15:01N 47°45' W 003°19'0 0.0
2017-Nov-18 14:31N 47°45' W 003°19'0 0.0
2017-Nov-18 14:00N 47°45' W 003°19'2 3.3
2017-Nov-18 13:31N 47°44' W 003°21'3 6.9
2017-Nov-18 13:00N 47°40' W 003°22'1 2.0
2017-Nov-18 12:30N 47°40' W 003°22'2 4.0
2017-Nov-18 12:00N 47°38' W 003°21'3 5.5
2017-Nov-18 11:31N 47°35' W 003°19'3 5.5
2017-Nov-18 11:01N 47°33' W 003°17'3 5.5
2017-Nov-18 10:31N 47°31' W 003°14'3 5.9
2017-Nov-18 10:00N 47°28' W 003°12'3 6.7
2017-Nov-18 09:31N 47°26' W 003°09'4 7.5
2017-Nov-18 09:01N 47°23' W 003°05'4 8.7
2017-Nov-18 08:30N 47°20' W 003°00'510.3
2017-Nov-18 08:00N 47°16' W 002°55'4 7.4
2017-Nov-18 07:30N 47°13' W 002°52'4 8.7
2017-Nov-18 06:59N 47°10' W 002°48'13 9.0
2017-Nov-18 05:35N 46°60' W 002°36'15 8.7
2017-Nov-18 03:52N 46°49' W 002°21'10 8.3
2017-Nov-18 02:37N 46°41' W 002°11'2 8.7
2017-Nov-18 02:25N 46°40' W 002°10'4 8.7
2017-Nov-18 02:00N 46°37' W 002°07'5 8.8
2017-Nov-18 01:27N 46°33' W 002°03'4 8.7
2017-Nov-18 01:00N 46°29' W 001°60'4 9.0
2017-Nov-18 00:31N 46°26' W 001°56'4 8.9
2017-Nov-18 00:00N 46°22' W 001°52'4 8.9
2017-Nov-17 23:31N 46°19' W 001°49'5 9.1
2017-Nov-17 23:00N 46°15' W 001°45'5 9.2
2017-Nov-17 22:27N 46°11' W 001°41'4 9.1
2017-Nov-17 22:01N 46°07' W 001°37'3 5.2
2017-Nov-17 21:31N 46°05' W 001°36'0 0.4
2017-Nov-17 21:01N 46°05' W 001°35'0 0.9
2017-Nov-17 20:31N 46°05' W 001°36'0 0.8
2017-Nov-17 20:00N 46°05' W 001°35'0 0.3
2017-Nov-17 19:30N 46°05' W 001°36'0 0.3
2017-Nov-17 19:00N 46°05' W 001°36'4 7.8
2017-Nov-17 18:30N 46°08' W 001°38'5 9.3
2017-Nov-17 18:00N 46°13' W 001°41'5 9.4
2017-Nov-17 17:30N 46°17' W 001°43'510.3
2017-Nov-17 17:00N 46°22' W 001°44'510.3
2017-Nov-17 16:30N 46°27' W 001°46'3 5.7
2017-Nov-17 16:00N 46°30' W 001°48'0 0.0
2017-Nov-17 15:30N 46°30' W 001°48'0 0.0
2017-Nov-17 15:00N 46°30' W 001°48'0 0.0
2017-Nov-17 14:30N 46°30' W 001°48'0 0.2
2017-Nov-17 14:00N 46°30' W 001°48'0 0.1
2017-Nov-17 13:30N 46°30' W 001°48'0 0.0
2017-Nov-17 13:01N 46°30' W 001°48'0 0.0
2017-Nov-17 12:30N 46°30' W 001°48'0 0.0
2017-Nov-17 12:00N 46°30' W 001°48'0 0.0
2017-Nov-17 11:30N 46°30' W 001°48'1 2.2
2017-Nov-17 11:00N 46°29' W 001°47'1 1.2
2017-Nov-17 10:30N 46°28' W 001°47'0 0.0
2017-Nov-17 10:01N 46°28' W 001°47'0 0.0
2017-Nov-17 09:31N 46°28' W 001°47'0 0.0
2017-Nov-17 09:01N 46°28' W 001°47'0 0.0
2017-Nov-17 08:31N 46°28' W 001°47'0 0.0
2017-Nov-17 08:01N 46°28' W 001°47'0 0.0
2017-Nov-17 07:31N 46°28' W 001°47'0 0.0
2017-Nov-17 07:00N 46°28' W 001°47'0 0.0
2017-Nov-17 06:30N 46°28' W 001°47'0 0.0
2017-Nov-17 06:01N 46°28' W 001°47'0 0.0
2017-Nov-17 05:31N 46°28' W 001°47'0 0.0
2017-Nov-17 05:00N 46°28' W 001°47'0 0.0
2017-Nov-17 04:31N 46°28' W 001°47'0 0.0
2017-Nov-17 04:00N 46°28' W 001°47'0 0.0
2017-Nov-17 03:30N 46°28' W 001°47'0 0.1
2017-Nov-17 03:00N 46°28' W 001°47'1 2.6
2017-Nov-17 02:30N 46°30' W 001°48'0 0.8
2017-Nov-17 02:00N 46°30' W 001°48'0 0.0
2017-Nov-17 01:30N 46°30' W 001°48'0 0.0
2017-Nov-17 01:01N 46°30' W 001°48'0 0.2
2017-Nov-17 00:31N 46°30' W 001°48'0 0.0
2017-Nov-17 00:00N 46°30' W 001°48'0 0.0
2017-Nov-16 23:30N 46°30' W 001°48'0 0.0
2017-Nov-16 23:00N 46°30' W 001°48'0 0.0
2017-Nov-16 22:31N 46°30' W 001°48'0 0.0
2017-Nov-16 22:00N 46°30' W 001°48'0 0.0
2017-Nov-16 21:30N 46°30' W 001°48'0 0.0
2017-Nov-16 21:01N 46°30' W 001°48'0 0.0
2017-Nov-16 20:30N 46°30' W 001°48'0 0.0
2017-Nov-16 20:00N 46°30' W 001°48'0 0.0
2017-Nov-16 19:30N 46°30' W 001°48'0 0.0
2017-Nov-16 19:01N 46°30' W 001°48'0 0.0
2017-Nov-16 18:30N 46°30' W 001°48'0 0.0
2017-Nov-16 18:01N 46°30' W 001°48'0 0.0
2017-Nov-16 17:30N 46°30' W 001°48'0 0.0
2017-Nov-16 17:00N 46°30' W 001°48'0 0.0
2017-Nov-16 16:30N 46°30' W 001°48'0 0.0
2017-Nov-16 16:00N 46°30' W 001°48'0 0.4
2017-Nov-16 15:30N 46°30' W 001°48'0 0.5
2017-Nov-16 15:00N 46°30' W 001°48'0 0.0
2017-Nov-16 14:30N 46°30' W 001°48'0 0.0
2017-Nov-16 14:00N 46°30' W 001°48'0 0.0
2017-Nov-16 13:30N 46°30' W 001°48'0 0.1
2017-Nov-16 13:00N 46°30' W 001°48'4 7.1
2017-Nov-16 12:30N 46°27' W 001°46'4 9.1
2017-Nov-16 12:01N 46°22' W 001°45'5 9.3
2017-Nov-16 11:30N 46°18' W 001°43'5 9.5
2017-Nov-16 10:58N 46°13' W 001°40'5 9.3
2017-Nov-16 10:28N 46°09' W 001°37'3 7.4
2017-Nov-16 10:01N 46°06' W 001°35'0 0.5
2017-Nov-16 09:31N 46°06' W 001°35'1 1.3
2017-Nov-16 09:00N 46°06' W 001°34'1 1.1
2017-Nov-16 08:31N 46°06' W 001°33'0 0.4
2017-Nov-16 08:00N 46°06' W 001°34'0 0.7
2017-Nov-16 07:30N 46°06' W 001°34'0 0.7
2017-Nov-16 07:00N 46°06' W 001°35'0 0.7
2017-Nov-16 06:31N 46°06' W 001°35'0 0.9
2017-Nov-16 06:00N 46°06' W 001°36'3 6.7
2017-Nov-16 05:31N 46°08' W 001°39'5 9.3
2017-Nov-16 05:01N 46°13' W 001°42'5 9.4
2017-Nov-16 04:30N 46°17' W 001°43'5 9.2
2017-Nov-16 04:01N 46°22' W 001°45'5 9.2
2017-Nov-16 03:30N 46°26' W 001°46'4 7.6
2017-Nov-16 03:00N 46°30' W 001°48'0 0.3
2017-Nov-16 02:30N 46°30' W 001°48'0 0.0
2017-Nov-16 02:01N 46°30' W 001°48'0 0.0
2017-Nov-16 01:31N 46°30' W 001°48'1 2.1
2017-Nov-16 01:01N 46°29' W 001°47'3 6.2
2017-Nov-16 00:31N 46°26' W 001°46'3 5.5
2017-Nov-16 00:01N 46°23' W 001°45'3 5.6
2017-Nov-15 23:31N 46°21' W 001°44'3 5.8
2017-Nov-15 23:01N 46°18' W 001°43'3 6.0
2017-Nov-15 22:28N 46°15' W 001°42'3 6.3
2017-Nov-15 21:57N 46°12' W 001°41'3 6.4
2017-Nov-15 21:31N 46°09' W 001°39'4 7.4
2017-Nov-15 21:01N 46°06' W 001°36'1 1.2
2017-Nov-15 20:31N 46°05' W 001°36'0 0.0
2017-Nov-15 20:01N 46°05' W 001°36'0 0.1
2017-Nov-15 19:30N 46°05' W 001°35'0 0.4
2017-Nov-15 19:01N 46°05' W 001°36'0 0.2
2017-Nov-15 18:31N 46°05' W 001°36'4 7.1
2017-Nov-15 18:01N 46°05' W 001°31'612.1
2017-Nov-15 17:31N 46°05' W 001°22'611.7
2017-Nov-15 17:01N 46°02' W 001°14'611.2
2017-Nov-15 16:31N 45°59' W 001°08'5 9.9
2017-Nov-15 16:00N 45°58' W 001°01'2 0.4
2017-Nov-15 12:13N 45°57' W 001°00'2 6.6
2017-Nov-15 11:56N 45°58' W 001°01'3 7.9
2017-Nov-15 11:30N 45°58' W 001°05'5 9.1
2017-Nov-15 11:00N 46°00' W 001°11'5 9.7
2017-Nov-15 10:30N 46°04' W 001°15'2 4.1
2017-Nov-15 10:00N 46°05' W 001°18'2 4.8
2017-Nov-15 09:31N 46°05' W 001°21'3 5.4
2017-Nov-15 09:00N 46°06' W 001°25'3 5.8
2017-Nov-15 08:30N 46°05' W 001°29'3 5.7
2017-Nov-15 08:00N 46°05' W 001°33'2 3.5
2017-Nov-15 07:31N 46°05' W 001°36'0 0.3
2017-Nov-15 07:01N 46°05' W 001°36'0 0.3
2017-Nov-15 06:30N 46°05' W 001°35'0 0.9
2017-Nov-15 06:01N 46°05' W 001°36'0 0.9
2017-Nov-15 05:31N 46°05' W 001°35'1 1.1
2017-Nov-15 05:00N 46°05' W 001°36'4 8.2
2017-Nov-15 04:30N 46°08' W 001°39'510.4
2017-Nov-15 04:00N 46°13' W 001°43'510.6
2017-Nov-15 03:30N 46°18' W 001°45'510.5
2017-Nov-15 03:00N 46°23' W 001°46'510.3
2017-Nov-15 02:30N 46°29' W 001°47'2 3.3
2017-Nov-15 02:01N 46°30' W 001°48'0 0.0
2017-Nov-15 01:31N 46°30' W 001°48'0 0.0
2017-Nov-15 01:00N 46°30' W 001°48'0 0.0
2017-Nov-15 00:30N 46°30' W 001°48'1 2.1
2017-Nov-15 00:00N 46°29' W 001°47'3 6.2
2017-Nov-14 23:30N 46°26' W 001°46'3 6.0
2017-Nov-14 23:00N 46°23' W 001°45'3 6.1
2017-Nov-14 22:30N 46°20' W 001°44'3 6.7
2017-Nov-14 22:01N 46°17' W 001°43'4 7.3
2017-Nov-14 21:30N 46°13' W 001°42'3 7.0
2017-Nov-14 21:00N 46°10' W 001°40'4 7.0
2017-Nov-14 20:30N 46°07' W 001°37'2 4.4
2017-Nov-14 20:00N 46°05' W 001°35'0 0.0
2017-Nov-14 19:31N 46°05' W 001°35'0 0.7
2017-Nov-14 19:00N 46°05' W 001°36'0 0.3
2017-Nov-14 18:31N 46°05' W 001°36'0 0.2
2017-Nov-14 18:00N 46°05' W 001°36'1 2.2
2017-Nov-14 17:31N 46°05' W 001°34'611.0
2017-Nov-14 17:01N 46°05' W 001°26'612.0
2017-Nov-14 16:31N 46°04' W 001°18'611.5
2017-Nov-14 15:59N 46°00' W 001°11'510.9
2017-Nov-14 15:29N 45°57' W 001°04'3 5.9
2017-Nov-14 14:59N 45°57' W 001°00'2 0.4
2017-Nov-14 11:08N 45°58' W 001°00'2 8.4
2017-Nov-14 10:54N 45°57' W 001°03'3 8.5
2017-Nov-14 10:30N 45°59' W 001°07'5 9.3
2017-Nov-14 10:00N 46°02' W 001°13'5 9.0
2017-Nov-14 09:30N 46°05' W 001°16'1 1.7
2017-Nov-14 09:00N 46°05' W 001°17'3 5.8
2017-Nov-14 08:30N 46°05' W 001°22'3 5.9
2017-Nov-14 08:00N 46°06' W 001°26'3 5.7
2017-Nov-14 07:29N 46°06' W 001°30'4 2.1
2017-Nov-14 05:39N 46°05' W 001°36'6 2.8
2017-Nov-14 03:26N 46°10' W 001°40'510.9
2017-Nov-14 03:00N 46°14' W 001°44'510.9
2017-Nov-14 02:30N 46°20' W 001°45'510.8
2017-Nov-14 02:00N 46°25' W 001°46'5 9.4
2017-Nov-14 01:30N 46°30' W 001°48'0 0.5
2017-Nov-14 01:00N 46°30' W 001°48'0 0.0
2017-Nov-14 00:30N 46°30' W 001°48'0 0.0
2017-Nov-14 00:01N 46°30' W 001°48'0 0.5
2017-Nov-13 23:30N 46°30' W 001°48'3 5.3
2017-Nov-13 23:00N 46°27' W 001°47'3 5.2
2017-Nov-13 22:30N 46°25' W 001°46'3 5.1
2017-Nov-13 22:00N 46°22' W 001°45'10 0.5
2017-Nov-13 01:59N 46°12' W 001°42'4 8.2
2017-Nov-13 01:30N 46°15' W 001°45'4 8.2
2017-Nov-13 01:00N 46°19' W 001°49'4 8.1
2017-Nov-13 00:30N 46°22' W 001°52'4 8.2
2017-Nov-13 00:00N 46°25' W 001°55'4 8.2
2017-Nov-12 23:30N 46°29' W 001°59'4 8.3
2017-Nov-12 23:00N 46°32' W 002°02'4 8.3
2017-Nov-12 22:30N 46°35' W 002°06'4 8.3
2017-Nov-12 22:00N 46°39' W 002°09'45 8.0
2017-Nov-12 16:21N 47°12' W 002°53'3 8.1
2017-Nov-12 16:00N 47°14' W 002°56'4 8.3
2017-Nov-12 15:30N 47°18' W 002°60'4 8.7
2017-Nov-12 15:00N 47°21' W 003°04'4 7.9
2017-Nov-12 14:30N 47°23' W 003°09'4 7.4
2017-Nov-12 14:00N 47°25' W 003°14'4 7.6
2017-Nov-12 13:30N 47°26' W 003°19'4 8.1
2017-Nov-12 13:00N 47°28' W 003°25'4 8.1
2017-Nov-12 12:30N 47°29' W 003°30'4 8.1
2017-Nov-12 12:00N 47°31' W 003°36'4 8.3
2017-Nov-12 11:30N 47°32' W 003°41'4 8.4
2017-Nov-12 11:00N 47°34' W 003°47'22 9.0
2017-Nov-12 08:33N 47°43' W 004°17'110.4
2017-Nov-12 08:29N 47°43' W 004°18'510.1
2017-Nov-12 07:59N 47°45' W 004°25'5 9.9
2017-Nov-12 07:29N 47°49' W 004°29'510.0
2017-Nov-12 07:00N 47°53' W 004°34'5 9.7
2017-Nov-12 06:30N 47°56' W 004°39'5 9.2
2017-Nov-12 06:01N 47°60' W 004°43'4 7.5
2017-Nov-12 05:31N 48°03' W 004°46'5 9.0
2017-Nov-12 05:00N 48°08' W 004°45'5 9.5
2017-Nov-12 04:30N 48°12' W 004°46'5 9.7
2017-Nov-12 04:00N 48°17' W 004°46'510.5
2017-Nov-12 03:30N 48°22' W 004°49'510.4
2017-Nov-12 03:00N 48°27' W 004°50'5 9.7
2017-Nov-12 02:30N 48°32' W 004°50'5 9.6
2017-Nov-12 02:00N 48°37' W 004°47'5 8.7
2017-Nov-12 01:27N 48°39' W 004°41'4 8.5
2017-Nov-12 01:00N 48°41' W 004°36'4 8.2
2017-Nov-12 00:30N 48°42' W 004°30'4 7.8
2017-Nov-11 23:57N 48°43' W 004°24'3 7.4
2017-Nov-11 23:30N 48°44' W 004°19'4 7.4
2017-Nov-11 23:00N 48°45' W 004°14'4 7.0
2017-Nov-11 22:28N 48°46' W 004°08'  

Dump ship's entire track history